createdAt,value
2022-09-28T00:00:48.176Z,9.58
2022-09-28T00:01:48.274Z,9.55
2022-09-28T00:02:48.258Z,9.54
2022-09-28T00:03:48.166Z,9.54
2022-09-28T00:04:48.119Z,9.54
2022-09-28T00:05:48.114Z,9.51
2022-09-28T00:06:48.096Z,9.52
2022-09-28T00:07:48.088Z,9.49
2022-09-28T00:08:48.116Z,9.48
2022-09-28T00:09:48.046Z,9.48
2022-09-28T00:10:48.057Z,9.47
2022-09-28T00:11:48.037Z,9.47
2022-09-28T00:12:48.017Z,9.47
2022-09-28T00:13:48.047Z,9.47
2022-09-28T00:14:47.988Z,9.48
2022-09-28T00:15:47.971Z,9.47
2022-09-28T00:16:48.026Z,9.47
2022-09-28T00:17:47.957Z,9.45
2022-09-28T00:18:47.954Z,9.45
2022-09-28T00:19:47.917Z,9.45
2022-09-28T00:20:47.944Z,9.47
2022-09-28T00:21:48.025Z,9.49
2022-09-28T00:22:47.878Z,9.51
2022-09-28T00:23:47.921Z,9.51
2022-09-28T00:24:47.896Z,9.49
2022-09-28T00:25:48.885Z,9.51
2022-09-28T00:26:47.827Z,9.48
2022-09-28T00:27:47.807Z,9.47
2022-09-28T00:28:47.816Z,9.45
2022-09-28T00:29:47.786Z,9.39
2022-09-28T00:30:47.775Z,9.37
2022-09-28T00:31:47.823Z,9.33
2022-09-28T00:32:47.748Z,9.30
2022-09-28T00:33:47.749Z,9.33
2022-09-28T00:34:47.717Z,9.33
2022-09-28T00:35:47.708Z,9.34
2022-09-28T00:36:47.694Z,9.37
2022-09-28T00:37:47.687Z,9.36
2022-09-28T00:38:47.697Z,9.37
2022-09-28T00:39:47.659Z,9.37
2022-09-28T00:40:47.688Z,9.42
2022-09-28T00:41:47.634Z,9.44
2022-09-28T00:42:47.617Z,9.47
2022-09-28T00:43:47.617Z,9.49
2022-09-28T00:44:47.586Z,9.51
2022-09-28T00:45:47.604Z,9.54
2022-09-28T00:46:47.566Z,9.54
2022-09-28T00:47:47.559Z,9.55
2022-09-28T00:48:47.547Z,9.56
2022-09-28T00:49:47.547Z,9.56
2022-09-28T00:50:47.506Z,9.58
2022-09-28T00:51:47.510Z,9.58
2022-09-28T00:52:47.482Z,9.59
2022-09-28T00:53:47.498Z,9.62
2022-09-28T00:54:47.455Z,9.62
2022-09-28T00:55:47.447Z,9.63
2022-09-28T00:56:47.431Z,9.64
2022-09-28T00:57:47.428Z,9.66
2022-09-28T00:58:47.417Z,9.64
2022-09-28T00:59:47.402Z,9.64
2022-09-28T01:00:47.425Z,9.66
2022-09-28T01:01:47.387Z,9.66
2022-09-28T01:02:47.347Z,9.64
2022-09-28T01:03:47.380Z,9.67
2022-09-28T01:04:47.320Z,9.67
2022-09-28T01:05:47.315Z,9.69
2022-09-28T01:06:47.308Z,9.69
2022-09-28T01:07:47.297Z,9.69
2022-09-28T01:08:47.284Z,9.70
2022-09-28T01:09:47.278Z,9.67
2022-09-28T01:10:47.237Z,9.64
2022-09-28T01:11:47.239Z,9.62
2022-09-28T01:12:47.219Z,9.58
2022-09-28T01:13:47.215Z,9.55
2022-09-28T01:14:47.212Z,9.52
2022-09-28T01:15:47.177Z,9.51
2022-09-28T01:16:47.195Z,9.47
2022-09-28T01:17:47.157Z,9.45
2022-09-28T01:18:47.155Z,9.44
2022-09-28T01:19:47.160Z,9.40
2022-09-28T01:20:47.107Z,9.40
2022-09-28T01:21:47.102Z,9.40
2022-09-28T01:22:47.089Z,9.45
2022-09-28T01:23:47.096Z,9.45
2022-09-28T01:24:47.100Z,9.47
2022-09-28T01:25:47.089Z,9.45
2022-09-28T01:26:47.087Z,9.45
2022-09-28T01:27:47.081Z,9.44
2022-09-28T01:28:47.078Z,9.44
2022-09-28T01:29:47.574Z,9.44
2022-09-28T01:30:47.017Z,9.45
2022-09-28T01:31:47.054Z,9.45
2022-09-28T01:32:46.956Z,9.45
2022-09-28T01:33:46.935Z,9.47
2022-09-28T01:34:46.967Z,9.47
2022-09-28T01:35:46.907Z,9.44
2022-09-28T01:36:46.895Z,9.44
2022-09-28T01:37:46.887Z,9.40
2022-09-28T01:38:46.868Z,9.39
2022-09-28T01:39:46.877Z,9.37
2022-09-28T01:40:46.863Z,9.37
2022-09-28T01:41:46.874Z,9.40
2022-09-28T01:42:46.829Z,9.42
2022-09-28T01:43:46.798Z,9.42
2022-09-28T01:44:46.807Z,9.45
2022-09-28T01:45:46.821Z,9.45
2022-09-28T01:46:46.759Z,9.45
2022-09-28T01:47:46.749Z,9.47
2022-09-28T01:48:46.737Z,9.45
2022-09-28T01:49:46.776Z,9.44
2022-09-28T01:50:46.774Z,9.44
2022-09-28T01:51:46.707Z,9.42
2022-09-28T01:52:46.674Z,9.40
2022-09-28T01:53:46.671Z,9.42
2022-09-28T01:54:46.739Z,9.45
2022-09-28T01:55:46.640Z,9.45
2022-09-28T01:56:46.628Z,9.47
2022-09-28T01:57:46.616Z,9.45
2022-09-28T01:58:46.596Z,9.45
2022-09-28T01:59:46.608Z,9.44
2022-09-28T02:00:46.657Z,9.40
2022-09-28T02:01:46.596Z,9.42
2022-09-28T02:02:46.545Z,9.42
2022-09-28T02:03:46.538Z,9.39
2022-09-28T02:04:46.536Z,9.37
2022-09-28T02:05:46.524Z,9.37
2022-09-28T02:06:46.486Z,9.40
2022-09-28T02:07:46.477Z,9.44
2022-09-28T02:08:46.466Z,9.45
2022-09-28T02:09:46.467Z,9.42
2022-09-28T02:10:46.438Z,9.39
2022-09-28T02:11:46.427Z,9.37
2022-09-28T02:12:46.416Z,9.39
2022-09-28T02:13:46.406Z,9.39
2022-09-28T02:14:46.407Z,9.37
2022-09-28T02:15:46.368Z,9.33
2022-09-28T02:16:46.422Z,9.29
2022-09-28T02:17:46.355Z,9.27
2022-09-28T02:18:46.325Z,9.30
2022-09-28T02:19:46.338Z,9.31
2022-09-28T02:20:46.307Z,9.31
2022-09-28T02:21:46.298Z,9.30
2022-09-28T02:22:46.279Z,9.29
2022-09-28T02:23:46.268Z,9.30
2022-09-28T02:24:46.266Z,9.31
2022-09-28T02:25:46.237Z,9.30
2022-09-28T02:26:46.226Z,9.29
2022-09-28T02:27:46.226Z,9.27
2022-09-28T02:28:46.200Z,9.26
2022-09-28T02:29:46.207Z,9.27
2022-09-28T02:30:46.177Z,9.26
2022-09-28T02:31:46.216Z,9.22
2022-09-28T02:32:46.155Z,9.24
2022-09-28T02:33:46.203Z,9.22
2022-09-28T02:34:46.142Z,9.24
2022-09-28T02:35:46.108Z,9.24
2022-09-28T02:36:46.097Z,9.24
2022-09-28T02:37:46.085Z,9.26
2022-09-28T02:38:46.090Z,9.22
2022-09-28T02:39:46.077Z,9.22
2022-09-28T02:40:46.124Z,9.21
2022-09-28T02:41:46.033Z,9.22
2022-09-28T02:42:46.069Z,9.24
2022-09-28T02:43:46.015Z,9.26
2022-09-28T02:44:46.022Z,9.29
2022-09-28T02:45:46.030Z,9.29
2022-09-28T02:46:45.956Z,9.29
2022-09-28T02:47:45.958Z,9.31
2022-09-28T02:48:55.781Z,9.31
2022-09-28T02:49:46.937Z,9.30
2022-09-28T02:50:45.929Z,9.29
2022-09-28T02:51:45.914Z,9.30
2022-09-28T02:52:45.890Z,9.29
2022-09-28T02:53:45.887Z,9.31
2022-09-28T02:54:45.891Z,9.31
2022-09-28T02:55:45.848Z,9.37
2022-09-28T02:56:45.819Z,9.39
2022-09-28T02:57:45.826Z,9.40
2022-09-28T02:58:45.795Z,9.39
2022-09-28T02:59:45.808Z,9.37
2022-09-28T03:00:45.792Z,9.36
2022-09-28T03:01:45.792Z,9.33
2022-09-28T03:02:45.747Z,9.34
2022-09-28T03:03:45.740Z,9.33
2022-09-28T03:04:45.738Z,9.31
2022-09-28T03:05:45.708Z,9.30
2022-09-28T03:06:45.688Z,9.29
2022-09-28T03:07:45.687Z,9.30
2022-09-28T03:08:45.666Z,9.31
2022-09-28T03:09:45.679Z,9.33
2022-09-28T03:10:45.636Z,9.34
2022-09-28T03:11:45.641Z,9.34
2022-09-28T03:12:45.616Z,9.31
2022-09-28T03:13:45.618Z,9.30
2022-09-28T03:14:45.610Z,9.30
2022-09-28T03:15:48.874Z,9.30
2022-09-28T03:16:46.372Z,9.29
2022-09-28T03:17:45.550Z,9.27
2022-09-28T03:18:45.538Z,9.29
2022-09-28T03:19:45.553Z,9.29
2022-09-28T03:20:45.506Z,9.29
2022-09-28T03:21:45.499Z,9.31
2022-09-28T03:23:00.229Z,9.33
2022-09-28T03:23:46.469Z,9.31
2022-09-28T03:24:45.479Z,9.34
2022-09-28T03:25:45.448Z,9.34
2022-09-28T03:26:45.431Z,9.34
2022-09-28T03:27:45.480Z,9.31
2022-09-28T03:28:45.399Z,9.31
2022-09-28T03:29:45.408Z,9.31
2022-09-28T03:30:45.382Z,9.30
2022-09-28T03:31:45.405Z,9.30
2022-09-28T03:32:45.348Z,9.30
2022-09-28T03:33:45.348Z,9.29
2022-09-28T03:34:45.350Z,9.29
2022-09-28T03:35:45.319Z,9.31
2022-09-28T03:36:45.299Z,9.30
2022-09-28T03:37:45.289Z,9.31
2022-09-28T03:38:45.271Z,9.31
2022-09-28T03:39:45.279Z,9.31
2022-09-28T03:40:45.455Z,9.31
2022-09-28T03:41:45.238Z,9.31
2022-09-28T03:42:45.219Z,9.31
2022-09-28T03:43:45.209Z,9.34
2022-09-28T03:44:45.208Z,9.33
2022-09-28T03:45:45.233Z,9.33
2022-09-28T03:46:45.167Z,9.31
2022-09-28T03:47:45.230Z,9.31
2022-09-28T03:48:45.139Z,9.31
2022-09-28T03:49:45.139Z,9.30
2022-09-28T03:50:45.110Z,9.31
2022-09-28T03:51:45.099Z,9.33
2022-09-28T03:52:45.093Z,9.34
2022-09-28T03:53:45.079Z,9.33
2022-09-28T03:54:49.033Z,9.31
2022-09-28T03:55:45.049Z,9.29
2022-09-28T03:56:45.038Z,9.26
2022-09-28T03:57:45.020Z,9.26
2022-09-28T03:58:44.999Z,9.24
2022-09-28T03:59:45.008Z,9.27
2022-09-28T04:00:44.998Z,9.26
2022-09-28T04:01:45.007Z,9.26
2022-09-28T04:02:44.947Z,9.27
2022-09-28T04:03:44.936Z,9.27
2022-09-28T04:04:44.939Z,9.29
2022-09-28T04:05:44.929Z,9.27
2022-09-28T04:06:44.890Z,9.29
2022-09-28T04:07:44.889Z,9.30
2022-09-28T04:08:44.889Z,9.30
2022-09-28T04:09:44.857Z,9.31
2022-09-28T04:10:44.848Z,9.33
2022-09-28T04:12:02.795Z,9.34
2022-09-28T04:12:45.820Z,9.33
2022-09-28T04:13:44.809Z,9.31
2022-09-28T04:14:44.800Z,9.33
2022-09-28T04:15:44.787Z,9.31
2022-09-28T04:16:44.804Z,9.30
2022-09-28T04:17:44.759Z,9.30
2022-09-28T04:18:44.735Z,9.29
2022-09-28T04:19:44.750Z,9.30
2022-09-28T04:20:44.719Z,9.30
2022-09-28T04:21:44.721Z,9.30
2022-09-28T04:22:44.661Z,9.30
2022-09-28T04:23:44.701Z,9.27
2022-09-28T04:24:44.711Z,9.26
2022-09-28T04:25:44.641Z,9.26
2022-09-28T04:26:44.637Z,9.19
2022-09-28T04:27:44.618Z,9.18
2022-09-28T04:28:44.606Z,9.16
2022-09-28T04:29:44.607Z,9.13
2022-09-28T04:30:44.579Z,9.13
2022-09-28T04:31:44.631Z,9.15
2022-09-28T04:32:44.561Z,9.11
2022-09-28T04:33:44.569Z,9.09
2022-09-28T04:34:44.673Z,9.08
2022-09-28T04:35:44.530Z,9.05
2022-09-28T04:36:44.534Z,9.03
2022-09-28T04:37:44.600Z,8.99
2022-09-28T04:38:53.498Z,8.96
2022-09-28T04:39:48.436Z,8.96
2022-09-28T04:40:44.498Z,8.92
2022-09-28T04:41:44.449Z,8.89
2022-09-28T04:42:44.421Z,8.89
2022-09-28T04:43:44.408Z,8.89
2022-09-28T04:44:44.407Z,8.89
2022-09-28T04:45:44.450Z,8.86
2022-09-28T04:46:44.380Z,8.86
2022-09-28T04:47:44.350Z,8.86
2022-09-28T04:48:44.341Z,8.82
2022-09-28T04:49:44.339Z,8.84
2022-09-28T04:50:51.609Z,8.81
2022-09-28T04:51:44.299Z,8.78
2022-09-28T04:52:44.286Z,8.75
2022-09-28T04:53:44.283Z,8.72
2022-09-28T04:54:44.333Z,8.71
2022-09-28T04:55:44.246Z,8.69
2022-09-28T04:56:44.239Z,8.69
2022-09-28T04:57:44.220Z,8.66
2022-09-28T04:58:46.865Z,8.63
2022-09-28T04:59:44.198Z,8.63
2022-09-28T05:00:44.250Z,8.61
2022-09-28T05:01:44.168Z,8.59
2022-09-28T05:02:44.198Z,8.56
2022-09-28T05:03:44.140Z,8.56
2022-09-28T05:04:44.141Z,8.57
2022-09-28T05:05:44.128Z,8.54
2022-09-28T05:06:44.099Z,8.54
2022-09-28T05:07:44.110Z,8.54
2022-09-28T05:08:44.081Z,8.52
2022-09-28T05:09:44.059Z,8.49
2022-09-28T05:10:44.069Z,8.42
2022-09-28T05:11:44.040Z,8.39
2022-09-28T05:12:44.019Z,8.41
2022-09-28T05:13:44.010Z,8.39
2022-09-28T05:14:43.989Z,8.39
2022-09-28T05:15:44.037Z,8.41
2022-09-28T05:16:44.005Z,8.44
2022-09-28T05:17:43.948Z,8.44
2022-09-28T05:18:43.972Z,8.45
2022-09-28T05:19:43.919Z,8.45
2022-09-28T05:20:43.933Z,8.45
2022-09-28T05:21:43.896Z,8.45
2022-09-28T05:22:43.878Z,8.46
2022-09-28T05:23:43.880Z,8.49
2022-09-28T05:24:43.859Z,8.52
2022-09-28T05:25:43.860Z,8.53
2022-09-28T05:26:43.848Z,8.56
2022-09-28T05:27:43.817Z,8.56
2022-09-28T05:28:43.820Z,8.56
2022-09-28T05:29:43.831Z,8.59
2022-09-28T05:30:43.809Z,8.60
2022-09-28T05:31:43.872Z,8.57
2022-09-28T05:32:43.757Z,8.59
2022-09-28T05:33:43.729Z,8.59
2022-09-28T05:34:43.726Z,8.71
2022-09-28T05:35:43.790Z,9.18
2022-09-28T05:36:43.709Z,9.59
2022-09-28T05:37:43.687Z,9.99
2022-09-28T05:38:43.661Z,10.30
2022-09-28T05:39:43.667Z,10.33
2022-09-28T05:40:43.749Z,10.48
2022-09-28T05:41:43.630Z,10.42
2022-09-28T05:42:43.619Z,10.59
2022-09-28T05:43:43.612Z,10.79
2022-09-28T05:44:43.602Z,10.76
2022-09-28T05:45:43.630Z,10.89
2022-09-28T05:46:43.568Z,10.98
2022-09-28T05:47:43.559Z,11.05
2022-09-28T05:48:43.599Z,11.18
2022-09-28T05:49:43.567Z,10.92
2022-09-28T05:50:43.519Z,10.64
2022-09-28T05:51:43.523Z,10.41
2022-09-28T05:52:43.488Z,10.15
2022-09-28T05:53:43.470Z,9.95
2022-09-28T05:54:43.446Z,9.80
2022-09-28T05:55:43.836Z,9.66
2022-09-28T05:56:43.450Z,9.52
2022-09-28T05:57:43.409Z,9.44
2022-09-28T05:58:43.419Z,9.37
2022-09-28T05:59:43.388Z,9.30
2022-09-28T06:00:43.390Z,9.24
2022-09-28T06:01:43.413Z,9.21
2022-09-28T06:02:43.437Z,9.15
2022-09-28T06:03:43.333Z,9.09
2022-09-28T06:04:43.354Z,9.05
2022-09-28T06:05:43.338Z,9.02
2022-09-28T06:06:43.294Z,8.99
2022-09-28T06:07:43.282Z,8.96
2022-09-28T06:08:43.281Z,8.95
2022-09-28T06:09:43.261Z,8.90
2022-09-28T06:10:43.270Z,8.87
2022-09-28T06:11:43.230Z,8.86
2022-09-28T06:12:43.219Z,8.87
2022-09-28T06:13:43.200Z,8.89
2022-09-28T06:14:43.203Z,8.90
2022-09-28T06:15:43.197Z,8.92
2022-09-28T06:16:44.067Z,8.93
2022-09-28T06:17:43.140Z,8.96
2022-09-28T06:18:43.138Z,9.00
2022-09-28T06:19:43.118Z,8.99
2022-09-28T06:20:43.136Z,9.03
2022-09-28T06:21:43.098Z,9.05
2022-09-28T06:22:43.092Z,9.05
2022-09-28T06:23:48.153Z,9.11
2022-09-28T06:24:44.059Z,9.11
2022-09-28T06:25:43.078Z,9.12
2022-09-28T06:26:43.043Z,9.15
2022-09-28T06:27:43.018Z,9.16
2022-09-28T06:28:43.008Z,9.18
2022-09-28T06:29:42.992Z,9.21
2022-09-28T06:30:43.041Z,9.19
2022-09-28T06:31:42.968Z,9.21
2022-09-28T06:32:42.951Z,9.22
2022-09-28T06:33:42.951Z,9.24
2022-09-28T06:34:42.931Z,9.27
2022-09-28T06:35:42.940Z,9.29
2022-09-28T06:36:42.922Z,9.31
2022-09-28T06:37:42.878Z,9.29
2022-09-28T06:38:42.880Z,9.24
2022-09-28T06:39:42.864Z,9.26
2022-09-28T06:40:42.892Z,9.24
2022-09-28T06:41:42.851Z,9.22
2022-09-28T06:42:42.821Z,9.22
2022-09-28T06:43:42.810Z,9.24
2022-09-28T06:44:42.804Z,9.29
2022-09-28T06:45:42.854Z,9.27
2022-09-28T06:46:42.791Z,9.31
2022-09-28T06:47:42.774Z,9.37
2022-09-28T06:48:42.784Z,9.39
2022-09-28T06:49:42.729Z,9.45
2022-09-28T06:50:42.721Z,9.49
2022-09-28T06:51:42.711Z,9.54
2022-09-28T06:52:42.691Z,9.56
2022-09-28T06:53:42.673Z,9.62
2022-09-28T06:54:42.775Z,9.63
2022-09-28T06:55:42.651Z,9.66
2022-09-28T06:56:42.700Z,9.64
2022-09-28T06:57:42.643Z,9.63
2022-09-28T06:58:42.601Z,9.66
2022-09-28T06:59:42.590Z,9.58
2022-09-28T07:00:42.590Z,9.56
2022-09-28T07:01:42.684Z,9.56
2022-09-28T07:02:42.724Z,9.56
2022-09-28T07:03:42.551Z,9.59
2022-09-28T07:04:42.541Z,9.63
2022-09-28T07:05:42.519Z,9.58
2022-09-28T07:06:42.522Z,9.56
2022-09-28T07:07:42.493Z,9.58
2022-09-28T07:08:42.492Z,9.62
2022-09-28T07:09:46.491Z,9.73
2022-09-28T07:10:43.461Z,9.80
2022-09-28T07:11:42.459Z,9.70
2022-09-28T07:12:42.429Z,9.69
2022-09-28T07:13:50.456Z,9.69
2022-09-28T07:14:47.673Z,9.67
2022-09-28T07:15:42.384Z,9.70
2022-09-28T07:17:09.744Z,9.69
2022-09-28T07:17:56.937Z,9.64
2022-09-28T07:18:43.343Z,9.63
2022-09-28T07:19:42.330Z,9.64
2022-09-28T07:20:52.081Z,9.63
2022-09-28T07:21:43.898Z,9.66
2022-09-28T07:22:43.857Z,9.67
2022-09-28T07:23:52.394Z,9.69
2022-09-28T07:24:43.277Z,9.67
2022-09-28T07:25:42.259Z,9.67
2022-09-28T07:26:42.271Z,9.67
2022-09-28T07:27:42.252Z,9.72
2022-09-28T07:28:42.198Z,9.74
2022-09-28T07:29:42.198Z,9.77
2022-09-28T07:30:42.274Z,9.77
2022-09-28T07:31:42.183Z,9.80
2022-09-28T07:32:42.162Z,9.80
2022-09-28T07:33:42.153Z,9.77
2022-09-28T07:34:42.131Z,9.76
2022-09-28T07:35:42.114Z,9.67
2022-09-28T07:36:42.145Z,9.58
2022-09-28T07:37:42.092Z,9.58
2022-09-28T07:38:42.084Z,9.55
2022-09-28T07:39:42.068Z,9.52
2022-09-28T07:40:45.129Z,9.59
2022-09-28T07:41:43.174Z,9.63
2022-09-28T07:42:42.012Z,9.66
2022-09-28T07:43:42.002Z,9.70
2022-09-28T07:44:42.021Z,9.73
2022-09-28T07:45:42.037Z,9.76
2022-09-28T07:46:42.013Z,9.80
2022-09-28T07:47:41.962Z,9.73
2022-09-28T07:48:41.953Z,9.74
2022-09-28T07:49:41.931Z,9.73
2022-09-28T07:50:41.940Z,9.76
2022-09-28T07:51:41.920Z,9.72
2022-09-28T07:52:41.891Z,9.74
2022-09-28T07:53:41.878Z,9.74
2022-09-28T07:54:41.872Z,9.82
2022-09-28T07:55:41.842Z,9.90
2022-09-28T07:56:41.864Z,9.97
2022-09-28T07:57:41.830Z,10.07
2022-09-28T07:58:41.826Z,10.10
2022-09-28T07:59:41.797Z,10.13
2022-09-28T08:00:41.802Z,10.10
2022-09-28T08:01:41.857Z,10.10
2022-09-28T08:02:41.813Z,10.12
2022-09-28T08:03:41.742Z,10.12
2022-09-28T08:04:41.732Z,10.13
2022-09-28T08:05:41.716Z,10.18
2022-09-28T08:06:41.721Z,10.20
2022-09-28T08:07:41.679Z,10.25
2022-09-28T08:08:41.680Z,10.25
2022-09-28T08:09:41.653Z,10.28
2022-09-28T08:10:45.804Z,10.31
2022-09-28T08:11:42.643Z,10.31
2022-09-28T08:12:41.622Z,10.31
2022-09-28T08:13:41.612Z,10.30
2022-09-28T08:14:41.600Z,10.25
2022-09-28T08:15:41.576Z,10.23
2022-09-28T08:16:41.563Z,10.23
2022-09-28T08:17:41.621Z,10.21
2022-09-28T08:18:41.541Z,10.18
2022-09-28T08:19:41.523Z,10.23
2022-09-28T08:20:41.522Z,10.24
2022-09-28T08:21:41.502Z,10.24
2022-09-28T08:22:41.501Z,10.23
2022-09-28T08:23:41.453Z,10.21
2022-09-28T08:24:41.456Z,10.24
2022-09-28T08:25:41.547Z,10.28
2022-09-28T08:26:41.432Z,10.34
2022-09-28T08:27:41.742Z,10.39
2022-09-28T08:28:41.422Z,10.43
2022-09-28T08:29:41.384Z,10.46
2022-09-28T08:30:41.409Z,10.46
2022-09-28T08:31:41.353Z,10.43
2022-09-28T08:32:41.373Z,10.48
2022-09-28T08:33:41.372Z,10.42
2022-09-28T08:34:41.360Z,10.38
2022-09-28T08:35:41.413Z,10.33
2022-09-28T08:36:41.311Z,10.31
2022-09-28T08:37:42.436Z,10.36
2022-09-28T08:38:41.264Z,10.39
2022-09-28T08:39:41.243Z,10.38
2022-09-28T08:40:41.261Z,10.38
2022-09-28T08:41:41.247Z,10.39
2022-09-28T08:42:41.212Z,10.38
2022-09-28T08:43:41.196Z,10.39
2022-09-28T08:44:41.190Z,10.41
2022-09-28T08:45:41.431Z,10.38
2022-09-28T08:46:41.179Z,10.42
2022-09-28T08:47:41.123Z,10.45
2022-09-28T08:48:41.130Z,10.46
2022-09-28T08:49:41.117Z,10.51
2022-09-28T08:50:41.106Z,10.55
2022-09-28T08:51:41.112Z,10.58
2022-09-28T08:52:41.343Z,10.57
2022-09-28T08:53:41.073Z,10.58
2022-09-28T08:54:41.062Z,10.57
2022-09-28T08:55:41.043Z,10.57
2022-09-28T08:56:41.041Z,10.61
2022-09-28T08:57:41.003Z,10.64
2022-09-28T08:58:41.027Z,10.71
2022-09-28T08:59:40.980Z,10.76
2022-09-28T09:00:40.966Z,10.71
2022-09-28T09:01:41.015Z,10.75
2022-09-28T09:02:40.982Z,10.77
2022-09-28T09:03:40.922Z,10.79
2022-09-28T09:04:40.912Z,10.83
2022-09-28T09:05:40.895Z,10.84
2022-09-28T09:06:40.894Z,10.87
2022-09-28T09:07:40.873Z,10.90
2022-09-28T09:08:40.847Z,10.94
2022-09-28T09:09:40.843Z,10.95
2022-09-28T09:10:40.823Z,11.01
2022-09-28T09:11:40.824Z,11.02
2022-09-28T09:12:40.834Z,11.04
2022-09-28T09:13:40.795Z,11.02
2022-09-28T09:14:40.764Z,11.05
2022-09-28T09:15:40.795Z,11.07
2022-09-28T09:16:40.824Z,11.08
2022-09-28T09:17:40.745Z,11.13
2022-09-28T09:18:40.774Z,11.13
2022-09-28T09:19:40.714Z,11.15
2022-09-28T09:20:40.681Z,11.13
2022-09-28T09:21:40.672Z,11.16
2022-09-28T09:22:40.695Z,11.18
2022-09-28T09:23:40.713Z,11.13
2022-09-28T09:24:40.645Z,11.16
2022-09-28T09:25:40.624Z,11.10
2022-09-28T09:26:40.603Z,11.07
2022-09-28T09:27:40.605Z,11.07
2022-09-28T09:28:40.574Z,11.12
2022-09-28T09:29:40.564Z,11.16
2022-09-28T09:30:40.631Z,11.18
2022-09-28T09:31:40.542Z,11.19
2022-09-28T09:32:40.534Z,11.16
2022-09-28T09:33:40.513Z,11.12
2022-09-28T09:34:40.506Z,11.08
2022-09-28T09:35:40.493Z,11.08
2022-09-28T09:36:41.277Z,11.13
2022-09-28T09:37:40.465Z,11.13
2022-09-28T09:38:40.433Z,11.15
2022-09-28T09:39:40.433Z,11.16
2022-09-28T09:40:40.461Z,11.30
2022-09-28T09:41:40.394Z,11.26
2022-09-28T09:42:40.409Z,11.23
2022-09-28T09:43:40.382Z,11.15
2022-09-28T09:44:40.353Z,11.23
2022-09-28T09:45:40.376Z,11.41
2022-09-28T09:46:40.328Z,11.52
2022-09-28T09:47:40.326Z,11.65
2022-09-28T09:48:40.305Z,11.71
2022-09-28T09:49:40.285Z,11.76
2022-09-28T09:50:40.246Z,11.80
2022-09-28T09:51:40.273Z,11.81
2022-09-28T09:52:43.679Z,11.91
2022-09-28T09:53:40.246Z,11.93
2022-09-28T09:54:40.225Z,11.96
2022-09-28T09:55:40.218Z,11.96
2022-09-28T09:56:40.265Z,11.96
2022-09-28T09:57:40.206Z,11.95
2022-09-28T09:58:40.166Z,11.89
2022-09-28T09:59:40.167Z,11.89
2022-09-28T10:00:40.159Z,11.89
2022-09-28T10:01:40.206Z,11.83
2022-09-28T10:02:40.168Z,11.80
2022-09-28T10:03:40.108Z,11.80
2022-09-28T10:04:40.086Z,11.81
2022-09-28T10:05:40.083Z,11.78
2022-09-28T10:06:40.062Z,11.78
2022-09-28T10:07:43.219Z,11.73
2022-09-28T10:08:40.037Z,11.68
2022-09-28T10:09:40.152Z,11.65
2022-09-28T10:10:40.047Z,11.63
2022-09-28T10:11:40.026Z,11.62
2022-09-28T10:12:39.976Z,11.53
2022-09-28T10:13:39.986Z,11.49
2022-09-28T10:14:39.940Z,11.41
2022-09-28T10:15:39.936Z,11.38
2022-09-28T10:16:40.050Z,11.33
2022-09-28T10:17:39.935Z,11.27
2022-09-28T10:18:39.920Z,11.18
2022-09-28T10:19:39.896Z,11.10
2022-09-28T10:20:39.870Z,11.01
2022-09-28T10:21:39.876Z,10.97
2022-09-28T10:22:39.837Z,10.94
2022-09-28T10:23:39.857Z,10.92
2022-09-28T10:24:39.822Z,10.90
2022-09-28T10:25:39.821Z,10.87
2022-09-28T10:26:39.786Z,10.92
2022-09-28T10:27:39.794Z,10.84
2022-09-28T10:28:39.793Z,10.72
2022-09-28T10:29:39.756Z,10.69
2022-09-28T10:30:39.822Z,10.62
2022-09-28T10:31:39.718Z,10.61
2022-09-28T10:32:39.719Z,10.58
2022-09-28T10:33:39.744Z,10.58
2022-09-28T10:34:39.677Z,10.58
2022-09-28T10:35:39.746Z,10.58
2022-09-28T10:36:39.645Z,10.57
2022-09-28T10:37:39.637Z,10.59
2022-09-28T10:38:39.638Z,10.64
2022-09-28T10:39:39.616Z,10.65
2022-09-28T10:40:39.681Z,10.68
2022-09-28T10:41:39.587Z,10.64
2022-09-28T10:42:39.569Z,10.65
2022-09-28T10:43:39.578Z,10.69
2022-09-28T10:44:39.546Z,10.77
2022-09-28T10:45:39.618Z,10.76
2022-09-28T10:46:39.507Z,10.79
2022-09-28T10:47:39.499Z,10.79
2022-09-28T10:48:40.060Z,10.80
2022-09-28T10:49:43.127Z,10.83
2022-09-28T10:50:40.456Z,10.86
2022-09-28T10:51:39.447Z,10.87
2022-09-28T10:52:39.428Z,10.90
2022-09-28T10:53:39.438Z,10.97
2022-09-28T10:54:39.409Z,11.02
2022-09-28T10:55:39.386Z,11.10
2022-09-28T10:56:39.409Z,11.08
2022-09-28T10:57:39.379Z,11.10
2022-09-28T10:58:46.617Z,11.13
2022-09-28T10:59:39.337Z,11.20
2022-09-28T11:00:39.335Z,11.25
2022-09-28T11:01:39.352Z,11.27
2022-09-28T11:02:39.335Z,11.27
2022-09-28T11:03:39.297Z,11.27
2022-09-28T11:04:39.265Z,11.33
2022-09-28T11:05:39.252Z,11.37
2022-09-28T11:06:39.227Z,11.38
2022-09-28T11:07:39.229Z,11.43
2022-09-28T11:08:39.226Z,11.49
2022-09-28T11:09:39.198Z,11.52
2022-09-28T11:10:39.178Z,11.56
2022-09-28T11:11:39.167Z,11.62
2022-09-28T11:12:39.156Z,11.67
2022-09-28T11:13:39.171Z,11.71
2022-09-28T11:14:42.445Z,11.85
2022-09-28T11:15:39.119Z,12.02
2022-09-28T11:16:39.164Z,12.26
2022-09-28T11:17:39.088Z,12.50
2022-09-28T11:18:39.074Z,12.73
2022-09-28T11:19:39.068Z,13.11
2022-09-28T11:20:40.714Z,13.26
2022-09-28T11:21:39.036Z,13.40
2022-09-28T11:22:39.017Z,13.54
2022-09-28T11:23:39.026Z,13.70
2022-09-28T11:24:38.994Z,13.76
2022-09-28T11:25:38.977Z,13.75
2022-09-28T11:26:38.968Z,13.79
2022-09-28T11:27:38.957Z,13.79
2022-09-28T11:28:38.957Z,13.79
2022-09-28T11:29:38.941Z,13.85
2022-09-28T11:30:38.955Z,13.93
2022-09-28T11:31:38.898Z,13.91
2022-09-28T11:32:38.887Z,13.93
2022-09-28T11:33:38.899Z,13.87
2022-09-28T11:34:58.098Z,13.80
2022-09-28T11:35:39.849Z,13.67
2022-09-28T11:36:38.860Z,13.39
2022-09-28T11:37:38.826Z,13.11
2022-09-28T11:38:38.819Z,12.72
2022-09-28T11:39:38.799Z,12.40
2022-09-28T11:40:38.834Z,12.17
2022-09-28T11:41:38.768Z,11.89
2022-09-28T11:42:38.768Z,11.67
2022-09-28T11:43:38.770Z,11.53
2022-09-28T11:44:38.729Z,11.48
2022-09-28T11:45:38.781Z,11.44
2022-09-28T11:46:38.700Z,11.48
2022-09-28T11:47:38.697Z,11.53
2022-09-28T11:48:38.708Z,11.56
2022-09-28T11:49:38.658Z,11.65
2022-09-28T11:50:38.637Z,11.74
2022-09-28T11:51:38.644Z,11.76
2022-09-28T11:52:38.619Z,11.77
2022-09-28T11:53:38.630Z,11.97
2022-09-28T11:54:38.598Z,12.10
2022-09-28T11:55:38.609Z,12.17
2022-09-28T11:56:38.831Z,12.25
2022-09-28T11:57:38.596Z,12.39
2022-09-28T11:58:38.735Z,12.55
2022-09-28T11:59:38.691Z,12.57
2022-09-28T12:00:38.605Z,12.55
2022-09-28T12:01:38.585Z,12.73
2022-09-28T12:02:38.663Z,12.87
2022-09-28T12:03:38.688Z,13.01
2022-09-28T12:04:38.605Z,13.09
2022-09-28T12:05:38.472Z,13.17
2022-09-28T12:06:38.711Z,13.24
2022-09-28T12:07:38.542Z,13.30
2022-09-28T12:08:38.452Z,13.43
2022-09-28T12:09:38.454Z,13.57
2022-09-28T12:10:42.168Z,13.60
2022-09-28T12:11:39.457Z,13.60
2022-09-28T12:12:38.383Z,13.62
2022-09-28T12:13:38.378Z,13.61
2022-09-28T12:14:38.331Z,13.52
2022-09-28T12:16:07.478Z,13.45
2022-09-28T12:17:04.381Z,13.30
2022-09-28T12:17:39.458Z,13.26
2022-09-28T12:18:38.292Z,13.21
2022-09-28T12:19:38.341Z,13.20
2022-09-28T12:20:38.251Z,13.17
2022-09-28T12:21:38.350Z,13.09
2022-09-28T12:22:38.433Z,13.05
2022-09-28T12:23:38.529Z,13.03
2022-09-28T12:24:38.275Z,12.99
2022-09-28T12:25:38.212Z,12.93
2022-09-28T12:26:38.291Z,12.87
2022-09-28T12:27:38.173Z,12.84
2022-09-28T12:28:38.273Z,12.81
2022-09-28T12:29:38.178Z,12.81
2022-09-28T12:30:38.185Z,12.76
2022-09-28T12:31:38.136Z,12.76
2022-09-28T12:32:38.135Z,12.70
2022-09-28T12:33:38.142Z,12.68
2022-09-28T12:34:38.258Z,12.69
2022-09-28T12:35:38.141Z,12.70
2022-09-28T12:36:38.031Z,12.69
2022-09-28T12:37:38.087Z,12.68
2022-09-28T12:38:38.022Z,12.68
2022-09-28T12:39:56.588Z,12.68
2022-09-28T12:40:39.035Z,12.61
2022-09-28T12:41:38.063Z,12.57
2022-09-28T12:42:37.962Z,12.57
2022-09-28T12:43:37.992Z,12.54
2022-09-28T12:44:38.030Z,12.48
2022-09-28T12:45:53.186Z,12.43
2022-09-28T12:46:39.015Z,12.43
2022-09-28T12:47:37.901Z,12.44
2022-09-28T12:48:37.951Z,12.45
2022-09-28T12:50:41.605Z,12.47
2022-09-28T12:51:38.830Z,12.45
2022-09-28T12:52:37.881Z,12.44
2022-09-28T12:53:37.863Z,12.45
2022-09-28T12:54:37.783Z,12.43
2022-09-28T12:55:37.783Z,12.43
2022-09-28T12:56:37.785Z,12.37
2022-09-28T12:57:37.753Z,12.32
2022-09-28T12:58:37.752Z,12.37
2022-09-28T12:59:37.753Z,12.36
2022-09-28T13:00:37.693Z,12.37
2022-09-28T13:01:37.730Z,12.40
2022-09-28T13:02:37.747Z,12.43
2022-09-28T13:03:37.824Z,12.45
2022-09-28T13:04:37.676Z,12.43
2022-09-28T13:05:37.683Z,12.43
2022-09-28T13:06:37.623Z,12.47
2022-09-28T13:07:37.660Z,12.48
2022-09-28T13:08:37.694Z,12.50